Time;durP1;ratioP1;P1;durP2;ratioP2;P2;SDS_P1;SDS_P2;PMS_P1;PMS_P2;Temp;Humidity;BMP_temperature;BMP_pressure;BME280_temperature;BME280_humidity;BME280_pressure;Samples;Min_cycle;Max_cycle;Signal;HPM_P1;HPM_P2
2023/06/01 00:01:52;;;;;;;4.00;3.60;;;;;;;;;;5070033;28;20577;-82
2023/06/01 00:04:18;;;;;;;3.77;3.47;;;;;;;;;;5069132;28;20380;-84
2023/06/01 00:06:44;;;;;;;3.70;3.30;;;;;;;;;;5068854;28;20383;-84
2023/06/01 00:09:11;;;;;;;3.90;3.50;;;;;;;;;;5064810;28;20896;-83
2023/06/01 00:11:37;;;;;;;4.10;3.70;;;;;;;;;;5069452;28;20409;-84
2023/06/01 00:14:03;;;;;;;3.83;3.23;;;;;;;;;;5069714;28;20425;-83
2023/06/01 00:16:30;;;;;;;4.00;3.53;;;;;;;;;;5064495;28;20628;-84
2023/06/01 00:18:56;;;;;;;4.15;3.47;;;;;;;;;;5067015;28;20407;-84
2023/06/01 00:21:23;;;;;;;3.90;3.50;;;;;;;;;;5061099;28;20382;-84
2023/06/01 00:23:49;;;;;;;3.67;3.38;;;;;;;;;;5068497;28;20471;-84
2023/06/01 00:26:15;;;;;;;3.88;3.40;;;;;;;;;;5061004;28;20389;-84
2023/06/01 00:28:41;;;;;;;3.92;3.47;;;;;;;;;;5054072;28;20441;-84
2023/06/01 00:31:07;;;;;;;3.70;3.40;;;;;;;;;;5055796;28;20381;-83
2023/06/01 00:33:33;;;;;;;3.80;3.47;;;;;;;;;;5065423;28;20376;-84
2023/06/01 00:35:59;;;;;;;3.70;3.40;;;;;;;;;;5052511;28;20374;-83
2023/06/01 00:38:25;;;;;;;3.92;3.53;;;;;;;;;;5064188;28;20407;-84
2023/06/01 00:40:51;;;;;;;3.85;3.42;;;;;;;;;;5068784;28;20372;-84
2023/06/01 00:43:18;;;;;;;3.90;3.60;;;;;;;;;;5063657;28;20452;-84
2023/06/01 00:45:44;;;;;;;4.05;3.65;;;;;;;;;;5057607;28;20389;-84
2023/06/01 00:48:11;;;;;;;4.10;3.70;;;;;;;;;;5052523;28;20380;-84
2023/06/01 00:50:37;;;;;;;4.77;3.67;;;;;;;;;;5052773;28;20393;-84
2023/06/01 00:53:06;;;;;;;4.15;3.75;;;;;;;;;;5062419;28;20872;-84
2023/06/01 00:55:32;;;;;;;4.00;3.70;;;;;;;;;;5057246;28;20885;-83
2023/06/01 00:57:58;;;;;;;3.88;3.58;;;;;;;;;;5070972;28;20491;-83
2023/06/01 01:00:27;;;;;;;4.93;3.50;;;;;;;;;;5070925;28;20880;-84
2023/06/01 01:02:53;;;;;;;3.70;3.40;;;;;;;;;;5065376;28;20830;-84
2023/06/01 01:05:19;;;;;;;3.72;3.40;;;;;;;;;;5067179;28;20383;-84
2023/06/01 01:07:51;;;;;;;4.15;3.67;;;;;;;;;;5061743;28;20393;-84
2023/06/01 01:10:17;;;;;;;4.22;3.58;;;;;;;;;;5063692;28;20449;-84
2023/06/01 01:12:50;;;;;;;3.90;3.50;;;;;;;;;;5058344;28;20389;-84
2023/06/01 01:15:36;;;;;;;4.20;3.80;;;;;;;;;;5060277;28;20570;-84
2023/06/01 01:18:07;;;;;;;5.25;4.22;;;;;;;;;;5054174;28;20516;-84
2023/06/01 01:20:39;;;;;;;4.25;3.85;;;;;;;;;;5055128;28;20378;-84
2023/06/01 01:23:16;;;;;;;4.85;3.88;;;;;;;;;;5054789;28;20389;-84
2023/06/01 01:25:46;;;;;;;3.90;3.55;;;;;;;;;;5037151;28;20378;-84
2023/06/01 01:28:21;;;;;;;5.30;3.90;;;;;;;;;;5051456;28;20401;-84
2023/06/01 01:30:49;;;;;;;4.03;3.60;;;;;;;;;;5042668;28;20386;-84
2023/06/01 01:33:15;;;;;;;3.90;3.50;;;;;;;;;;5047387;28;20473;-84
2023/06/01 01:35:42;;;;;;;4.03;3.73;;;;;;;;;;5062145;28;20480;-84
2023/06/01 01:38:08;;;;;;;4.07;3.67;;;;;;;;;;5062744;28;20413;-84
2023/06/01 01:40:34;;;;;;;4.22;3.83;;;;;;;;;;5061263;28;20397;-84
2023/06/01 01:43:01;;;;;;;4.00;3.60;;;;;;;;;;5051961;28;20447;-85
2023/06/01 01:45:27;;;;;;;4.53;4.13;;;;;;;;;;5055715;28;20782;-84
2023/06/01 01:47:55;;;;;;;4.43;3.92;;;;;;;;;;5049874;28;20384;-84
2023/06/01 01:50:23;;;;;;;4.03;3.70;;;;;;;;;;5051820;28;21029;-84
2023/06/01 01:52:49;;;;;;;4.00;3.65;;;;;;;;;;5060223;28;20867;-84
2023/06/01 01:55:18;;;;;;;4.57;3.72;;;;;;;;;;5061391;28;20472;-84
2023/06/01 01:57:44;;;;;;;4.40;4.00;;;;;;;;;;5067742;28;20395;-84
2023/06/01 02:00:12;;;;;;;4.20;3.90;;;;;;;;;;5064744;28;20389;-84
2023/06/01 02:02:38;;;;;;;4.57;4.00;;;;;;;;;;5056262;28;20382;-82
2023/06/01 02:05:04;;;;;;;5.57;4.07;;;;;;;;;;5054063;28;20796;-84
2023/06/01 02:07:33;;;;;;;4.05;3.75;;;;;;;;;;5059224;28;20381;-83
2023/06/01 02:09:59;;;;;;;4.10;3.70;;;;;;;;;;5047372;28;20891;-84
2023/06/01 02:12:25;;;;;;;4.40;4.00;;;;;;;;;;5039226;28;20480;-84
2023/06/01 02:14:51;;;;;;;4.40;4.00;;;;;;;;;;5046214;28;20406;-84
2023/06/01 02:17:17;;;;;;;4.57;4.03;;;;;;;;;;5058987;28;20437;-84
2023/06/01 02:19:44;;;;;;;4.20;3.90;;;;;;;;;;5063912;28;20421;-84
2023/06/01 02:22:10;;;;;;;5.10;4.32;;;;;;;;;;5054136;28;20404;-83
2023/06/01 02:24:36;;;;;;;3.90;3.60;;;;;;;;;;5040039;28;20754;-83
2023/06/01 02:27:05;;;;;;;4.70;4.20;;;;;;;;;;5058358;28;20392;-84
2023/06/01 02:29:31;;;;;;;4.28;3.88;;;;;;;;;;5065152;28;20472;-85
2023/06/01 02:32:00;;;;;;;5.38;3.97;;;;;;;;;;5055876;28;20742;-84
2023/06/01 02:34:26;;;;;;;4.90;4.18;;;;;;;;;;5060784;28;20379;-83
2023/06/01 02:36:55;;;;;;;4.95;4.10;;;;;;;;;;5059611;28;20389;-84
2023/06/01 02:39:21;;;;;;;4.32;3.65;;;;;;;;;;5063678;28;20437;-85
2023/06/01 02:41:47;;;;;;;8.98;5.40;;;;;;;;;;5056648;28;20413;-84
2023/06/01 02:44:13;;;;;;;4.50;4.10;;;;;;;;;;5063057;28;20407;-84
2023/06/01 02:46:39;;;;;;;4.63;4.22;;;;;;;;;;5055030;28;20669;-84
2023/06/01 02:49:06;;;;;;;4.32;3.92;;;;;;;;;;5056330;28;20395;-84
2023/06/01 02:51:32;;;;;;;4.47;3.85;;;;;;;;;;5072034;28;20425;-84
2023/06/01 02:53:59;;;;;;;4.88;4.38;;;;;;;;;;5059220;28;20420;-84
2023/06/01 02:56:26;;;;;;;6.47;4.03;;;;;;;;;;5071673;28;20375;-85
2023/06/01 02:58:52;;;;;;;7.57;4.35;;;;;;;;;;5064017;28;20416;-84
2023/06/01 03:01:19;;;;;;;4.63;4.15;;;;;;;;;;5068549;28;20387;-84
2023/06/01 03:03:46;;;;;;;4.85;4.20;;;;;;;;;;5060784;28;20372;-84
2023/06/01 03:06:13;;;;;;;5.43;4.57;;;;;;;;;;5073580;28;20380;-84
2023/06/01 03:08:39;;;;;;;5.60;4.60;;;;;;;;;;5073219;28;20466;-84
2023/06/01 03:11:05;;;;;;;4.70;3.58;;;;;;;;;;5073342;28;20434;-84
2023/06/01 03:13:31;;;;;;;4.82;4.32;;;;;;;;;;5073308;28;20380;-84
2023/06/01 03:15:57;;;;;;;4.90;4.17;;;;;;;;;;5072817;28;20706;-83
2023/06/01 03:18:23;;;;;;;4.30;3.90;;;;;;;;;;5072341;28;20446;-84
2023/06/01 03:20:49;;;;;;;4.40;4.00;;;;;;;;;;5073165;28;20422;-84
2023/06/01 03:23:16;;;;;;;4.43;4.00;;;;;;;;;;5073089;28;20375;-84
2023/06/01 03:25:42;;;;;;;4.20;3.80;;;;;;;;;;5073159;28;20376;-83
2023/06/01 03:28:08;;;;;;;5.03;4.00;;;;;;;;;;5072992;28;20382;-83
2023/06/01 03:30:34;;;;;;;4.43;3.88;;;;;;;;;;5072804;28;20376;-83
2023/06/01 03:33:00;;;;;;;4.73;3.73;;;;;;;;;;5073054;28;20376;-83
2023/06/01 03:35:26;;;;;;;4.35;3.80;;;;;;;;;;5072886;28;20703;-84
2023/06/01 03:37:53;;;;;;;4.32;4.00;;;;;;;;;;5073007;28;20403;-84
2023/06/01 03:40:19;;;;;;;4.27;3.87;;;;;;;;;;5072739;28;20372;-83
2023/06/01 03:42:46;;;;;;;4.47;4.07;;;;;;;;;;5072741;28;20411;-84
2023/06/01 03:45:12;;;;;;;4.72;3.88;;;;;;;;;;5072812;28;20403;-84
2023/06/01 03:47:39;;;;;;;4.30;3.90;;;;;;;;;;5072612;28;20371;-84
2023/06/01 03:50:08;;;;;;;4.15;3.75;;;;;;;;;;5072514;28;20407;-83
2023/06/01 03:52:35;;;;;;;4.43;4.03;;;;;;;;;;5072367;28;20411;-84
2023/06/01 03:55:01;;;;;;;4.07;3.70;;;;;;;;;;5072687;28;20433;-83
2023/06/01 03:57:28;;;;;;;4.43;3.80;;;;;;;;;;5072005;28;20451;-83
2023/06/01 03:59:54;;;;;;;4.63;4.22;;;;;;;;;;5072069;28;20876;-84
2023/06/01 04:02:21;;;;;;;4.32;3.92;;;;;;;;;;5072462;28;20375;-84
2023/06/01 04:04:48;;;;;;;6.07;4.30;;;;;;;;;;5072225;28;20379;-84
2023/06/01 04:07:18;;;;;;;4.28;3.88;;;;;;;;;;5072486;28;20718;-84
2023/06/01 04:09:44;;;;;;;4.70;3.97;;;;;;;;;;5072194;28;20407;-84
2023/06/01 04:12:10;;;;;;;5.13;4.13;;;;;;;;;;5072315;28;20391;-83
2023/06/01 04:14:37;;;;;;;4.43;4.03;;;;;;;;;;5072122;28;20380;-83
2023/06/01 04:17:03;;;;;;;5.30;4.18;;;;;;;;;;5054585;28;20387;-83
2023/06/01 04:19:29;;;;;;;4.97;4.10;;;;;;;;;;5071863;28;20484;-82
2023/06/01 04:21:57;;;;;;;4.20;3.80;;;;;;;;;;5071470;28;20421;-83
2023/06/01 04:24:23;;;;;;;5.97;4.07;;;;;;;;;;5071896;28;20883;-82
2023/06/01 04:26:50;;;;;;;6.20;4.30;;;;;;;;;;5071980;28;20399;-82
2023/06/01 04:29:19;;;;;;;4.63;4.22;;;;;;;;;;5071607;28;20380;-83
2023/06/01 04:31:45;;;;;;;4.40;4.00;;;;;;;;;;5071822;28;20414;-82
2023/06/01 04:34:12;;;;;;;4.55;4.10;;;;;;;;;;5071748;28;20737;-83
2023/06/01 04:36:39;;;;;;;4.53;4.10;;;;;;;;;;5072022;28;20773;-82
2023/06/01 04:39:06;;;;;;;4.55;4.15;;;;;;;;;;5071403;28;20489;-82
2023/06/01 04:41:33;;;;;;;5.25;4.10;;;;;;;;;;5071628;28;20376;-82
2023/06/01 04:43:59;;;;;;;4.47;4.07;;;;;;;;;;5071176;28;20497;-82
2023/06/01 04:46:26;;;;;;;4.95;4.40;;;;;;;;;;5071654;28;20467;-83
2023/06/01 04:48:58;;;;;;;5.53;4.50;;;;;;;;;;5069199;28;20493;-83
2023/06/01 04:51:24;;;;;;;4.57;4.18;;;;;;;;;;5071527;28;20371;-83
2023/06/01 04:53:51;;;;;;;6.63;4.20;;;;;;;;;;5071495;28;20394;-82
2023/06/01 04:56:18;;;;;;;4.75;4.18;;;;;;;;;;5071017;28;20483;-82
2023/06/01 04:58:46;;;;;;;4.50;4.10;;;;;;;;;;5071177;28;20428;-83
2023/06/01 05:01:14;;;;;;;4.50;4.10;;;;;;;;;;5071141;28;20384;-83
2023/06/01 05:03:41;;;;;;;5.73;4.37;;;;;;;;;;5071369;28;20376;-82
2023/06/01 05:06:07;;;;;;;4.65;4.20;;;;;;;;;;5071275;28;20459;-82
2023/06/01 05:08:33;;;;;;;5.00;4.50;;;;;;;;;;5071073;28;20464;-83
2023/06/01 05:10:59;;;;;;;4.23;3.83;;;;;;;;;;5071089;28;20799;-83
2023/06/01 05:13:25;;;;;;;4.63;4.05;;;;;;;;;;5067795;28;20390;-83
2023/06/01 05:15:51;;;;;;;5.32;4.50;;;;;;;;;;5060372;28;20372;-84
2023/06/01 05:18:17;;;;;;;4.50;4.10;;;;;;;;;;5070882;28;20404;-83
2023/06/01 05:20:43;;;;;;;6.03;4.27;;;;;;;;;;5071059;28;20407;-82
2023/06/01 05:23:09;;;;;;;4.60;4.10;;;;;;;;;;5067014;28;20383;-83
2023/06/01 05:25:35;;;;;;;5.70;4.43;;;;;;;;;;5065994;28;20376;-83
2023/06/01 05:28:01;;;;;;;6.05;4.50;;;;;;;;;;5070911;28;20379;-83
2023/06/01 05:30:27;;;;;;;5.22;4.55;;;;;;;;;;5070812;28;20376;-83
2023/06/01 05:32:53;;;;;;;4.88;4.00;;;;;;;;;;5070953;28;20382;-83
2023/06/01 05:35:20;;;;;;;6.15;4.15;;;;;;;;;;5070708;28;20464;-84
2023/06/01 05:37:46;;;;;;;4.97;3.85;;;;;;;;;;5070487;28;20375;-83
2023/06/01 05:40:12;;;;;;;4.50;4.10;;;;;;;;;;5071474;28;20383;-85
2023/06/01 05:42:38;;;;;;;4.25;3.53;;;;;;;;;;5073794;28;20375;-86
2023/06/01 05:45:05;;;;;;;4.20;3.80;;;;;;;;;;5062279;28;20391;-87
2023/06/01 05:47:31;;;;;;;4.30;3.90;;;;;;;;;;5074897;28;20387;-86
2023/06/01 05:49:57;;;;;;;5.65;4.05;;;;;;;;;;5074439;28;20384;-87
2023/06/01 05:52:23;;;;;;;4.45;3.80;;;;;;;;;;5074921;28;20879;-86
2023/06/01 05:54:50;;;;;;;4.97;4.30;;;;;;;;;;5068737;28;20389;-86
2023/06/01 05:57:16;;;;;;;5.10;4.60;;;;;;;;;;5074784;28;20379;-86
2023/06/01 05:59:42;;;;;;;4.67;4.27;;;;;;;;;;5074535;28;20404;-85
2023/06/01 06:02:08;;;;;;;4.88;4.13;;;;;;;;;;5074762;28;20383;-86
2023/06/01 06:04:34;;;;;;;4.82;4.32;;;;;;;;;;5074526;28;20371;-86
2023/06/01 06:07:00;;;;;;;6.32;4.32;;;;;;;;;;5074577;28;20391;-86
2023/06/01 06:09:26;;;;;;;5.72;4.60;;;;;;;;;;5074393;28;20474;-86
2023/06/01 06:11:52;;;;;;;5.05;4.45;;;;;;;;;;5074416;28;20384;-85
2023/06/01 06:14:18;;;;;;;4.60;3.97;;;;;;;;;;5065841;28;20383;-86
2023/06/01 06:16:44;;;;;;;5.30;4.30;;;;;;;;;;5073745;28;20737;-86
2023/06/01 06:19:10;;;;;;;5.28;4.30;;;;;;;;;;5073836;28;20771;-86
2023/06/01 06:21:38;;;;;;;5.60;4.35;;;;;;;;;;5073852;28;20384;-86
2023/06/01 06:24:04;;;;;;;5.32;4.38;;;;;;;;;;5073935;28;20383;-85
2023/06/01 06:26:30;;;;;;;4.93;4.30;;;;;;;;;;5074259;28;20376;-85
2023/06/01 06:28:56;;;;;;;5.10;4.22;;;;;;;;;;5060521;28;20950;-86
2023/06/01 06:31:22;;;;;;;5.38;4.20;;;;;;;;;;5073926;28;20388;-85
2023/06/01 06:33:48;;;;;;;5.07;4.57;;;;;;;;;;5074036;28;20449;-85
2023/06/01 06:36:14;;;;;;;5.00;4.50;;;;;;;;;;5073332;28;20382;-85
2023/06/01 06:38:40;;;;;;;5.55;4.80;;;;;;;;;;5054626;28;20401;-86
2023/06/01 06:41:06;;;;;;;5.13;4.63;;;;;;;;;;5073585;28;20410;-85
2023/06/01 06:43:32;;;;;;;5.75;4.63;;;;;;;;;;5065109;28;20382;-85
2023/06/01 06:45:58;;;;;;;7.07;5.10;;;;;;;;;;5073771;28;20741;-84
2023/06/01 06:48:24;;;;;;;7.05;4.85;;;;;;;;;;5073424;28;20471;-86
2023/06/01 06:50:51;;;;;;;6.85;4.78;;;;;;;;;;5071010;28;20740;-85
2023/06/01 06:53:17;;;;;;;7.63;5.22;;;;;;;;;;5073783;28;20380;-85
2023/06/01 06:55:44;;;;;;;7.55;5.40;;;;;;;;;;5073571;28;20748;-85
2023/06/01 06:58:10;;;;;;;5.63;4.88;;;;;;;;;;5073143;28;20433;-84
2023/06/01 07:00:36;;;;;;;6.22;4.80;;;;;;;;;;5073467;28;20372;-85
2023/06/01 07:03:03;;;;;;;7.57;5.07;;;;;;;;;;5073508;28;20383;-85
2023/06/01 07:05:29;;;;;;;7.97;4.75;;;;;;;;;;5070034;28;20393;-84
2023/06/01 07:07:56;;;;;;;6.77;5.43;;;;;;;;;;5057649;28;20385;-87
2023/06/01 07:10:22;;;;;;;6.93;4.80;;;;;;;;;;5062426;28;20396;-86
2023/06/01 07:12:48;;;;;;;6.60;5.25;;;;;;;;;;5065496;28;20375;-88
2023/06/01 07:15:14;;;;;;;7.57;5.55;;;;;;;;;;5062500;28;20372;-87
2023/06/01 07:17:40;;;;;;;7.53;5.07;;;;;;;;;;5073312;28;20372;-86
2023/06/01 07:20:10;;;;;;;6.13;5.30;;;;;;;;;;5042941;28;20417;-86
2023/06/01 07:22:36;;;;;;;6.00;4.90;;;;;;;;;;5073120;28;20911;-87
2023/06/01 07:25:02;;;;;;;6.10;4.97;;;;;;;;;;5073151;28;20402;-86
2023/06/01 07:27:28;;;;;;;8.85;5.45;;;;;;;;;;5072457;28;20474;-87
2023/06/01 07:29:55;;;;;;;7.03;5.30;;;;;;;;;;5071237;28;20471;-86
2023/06/01 07:32:25;;;;;;;5.55;4.75;;;;;;;;;;5071235;28;20390;-86
2023/06/01 07:34:51;;;;;;;10.27;5.30;;;;;;;;;;5070922;28;20826;-87
2023/06/01 07:37:21;;;;;;;5.40;4.90;;;;;;;;;;5071301;28;20474;-86
2023/06/01 07:39:47;;;;;;;7.57;5.30;;;;;;;;;;5054589;28;20404;-86
2023/06/01 07:42:14;;;;;;;6.20;5.60;;;;;;;;;;5071414;28;20479;-86
2023/06/01 07:44:40;;;;;;;5.72;4.65;;;;;;;;;;5056125;28;20387;-86
2023/06/01 07:47:07;;;;;;;6.60;4.93;;;;;;;;;;5072753;28;20954;-86
2023/06/01 07:49:35;;;;;;;6.30;5.10;;;;;;;;;;5072289;28;20380;-86
2023/06/01 07:52:02;;;;;;;8.27;5.05;;;;;;;;;;5072741;28;20433;-87
2023/06/01 07:54:28;;;;;;;5.30;4.82;;;;;;;;;;5072570;28;20414;-86
2023/06/01 07:56:54;;;;;;;9.05;4.97;;;;;;;;;;5072508;28;20443;-86
2023/06/01 07:59:27;;;;;;;6.53;5.43;;;;;;;;;;5072419;28;20412;-87
2023/06/01 08:01:55;;;;;;;5.35;4.80;;;;;;;;;;5072520;28;20372;-86
2023/06/01 08:04:21;;;;;;;6.63;5.22;;;;;;;;;;5071855;28;20384;-86
2023/06/01 08:06:47;;;;;;;7.03;5.10;;;;;;;;;;5072334;28;20440;-86
2023/06/01 08:09:13;;;;;;;5.40;4.90;;;;;;;;;;5072032;28;20403;-86
2023/06/01 08:11:39;;;;;;;6.10;4.50;;;;;;;;;;5072088;28;20514;-86
2023/06/01 08:14:08;;;;;;;8.00;5.45;;;;;;;;;;5072213;28;20490;-86
2023/06/01 08:16:35;;;;;;;7.32;5.25;;;;;;;;;;5071984;28;20432;-86
2023/06/01 08:19:01;;;;;;;5.35;4.85;;;;;;;;;;5071959;28;20411;-87
2023/06/01 08:21:27;;;;;;;6.65;5.25;;;;;;;;;;5072095;28;20379;-86
2023/06/01 08:23:56;;;;;;;7.07;4.93;;;;;;;;;;5071981;28;20918;-86
2023/06/01 08:26:22;;;;;;;5.40;4.90;;;;;;;;;;5071933;28;20384;-86
2023/06/01 08:28:51;;;;;;;5.88;4.82;;;;;;;;;;5071454;28;20480;-86
2023/06/01 08:31:21;;;;;;;6.88;4.65;;;;;;;;;;5071975;28;20475;-86
2023/06/01 08:33:48;;;;;;;5.20;4.40;;;;;;;;;;5071490;28;20427;-86
2023/06/01 08:36:14;;;;;;;5.43;4.78;;;;;;;;;;5071631;28;20797;-86
2023/06/01 08:38:41;;;;;;;4.97;4.47;;;;;;;;;;5071559;28;20425;-86
2023/06/01 08:41:19;;;;;;;5.25;4.53;;;;;;;;;;5071282;28;20386;-86
2023/06/01 08:43:50;;;;;;;6.25;4.85;;;;;;;;;;5062873;28;21004;-86
2023/06/01 08:46:16;;;;;;;7.47;4.80;;;;;;;;;;5071733;28;20454;-86
2023/06/01 08:48:44;;;;;;;6.18;4.60;;;;;;;;;;5071501;28;20464;-86
2023/06/01 08:51:10;;;;;;;5.88;4.90;;;;;;;;;;5071535;28;20441;-84
2023/06/01 08:53:42;;;;;;;5.72;4.75;;;;;;;;;;5071597;28;20407;-86
2023/06/01 08:56:08;;;;;;;5.70;5.00;;;;;;;;;;5071265;28;20384;-89
2023/06/01 08:58:35;;;;;;;5.43;4.93;;;;;;;;;;5071352;28;20439;-87
2023/06/01 09:01:01;;;;;;;5.80;4.65;;;;;;;;;;5053490;28;20823;-88
2023/06/01 09:03:27;;;;;;;5.63;5.13;;;;;;;;;;5071391;28;20467;-86
2023/06/01 09:05:53;;;;;;;6.57;4.75;;;;;;;;;;5064997;28;20397;-87
2023/06/01 09:08:21;;;;;;;9.30;4.90;;;;;;;;;;5054661;28;20380;-87
2023/06/01 09:10:47;;;;;;;6.30;5.05;;;;;;;;;;5071181;28;20474;-87
2023/06/01 09:13:14;;;;;;;5.30;4.80;;;;;;;;;;5071159;28;20386;-87
2023/06/01 09:16:01;;;;;;;8.10;5.37;;;;;;;;;;5071213;28;20379;-87
2023/06/01 09:18:27;;;;;;;5.03;4.55;;;;;;;;;;5070969;28;20904;-86
2023/06/01 09:20:54;;;;;;;6.10;4.82;;;;;;;;;;5071185;28;20383;-86
2023/06/01 09:23:29;;;;;;;5.20;4.70;;;;;;;;;;5071118;28;20380;-87
2023/06/01 09:26:06;;;;;;;5.05;4.50;;;;;;;;;;5071202;28;20379;-86
2023/06/01 09:28:52;;;;;;;6.30;4.72;;;;;;;;;;5070622;28;20381;-87
2023/06/01 09:31:37;;;;;;;6.47;4.90;;;;;;;;;;5066713;28;20467;-89
2023/06/01 09:34:04;;;;;;;5.80;4.70;;;;;;;;;;5070118;28;20379;-86
2023/06/01 09:36:31;;;;;;;5.78;4.70;;;;;;;;;;5070663;28;20388;-87
2023/06/01 09:39:01;;;;;;;6.45;4.50;;;;;;;;;;5062906;28;20399;-88
2023/06/01 09:41:31;;;;;;;6.63;4.40;;;;;;;;;;5058210;28;20474;-87
2023/06/01 09:43:57;;;;;;;6.82;4.35;;;;;;;;;;5056447;28;20382;-87
2023/06/01 09:46:23;;;;;;;5.30;4.80;;;;;;;;;;5067395;28;20380;-87
2023/06/01 09:48:50;;;;;;;7.43;4.90;;;;;;;;;;5066053;28;20387;-87
2023/06/01 09:51:25;;;;;;;4.75;4.45;;;;;;;;;;5067343;28;20390;-88
2023/06/01 09:53:52;;;;;;;5.32;4.82;;;;;;;;;;5070410;28;20864;-87
2023/06/01 09:56:18;;;;;;;5.78;4.60;;;;;;;;;;5070825;28;20848;-87
2023/06/01 09:58:44;;;;;;;6.70;4.70;;;;;;;;;;5070705;28;20478;-87
2023/06/01 10:01:11;;;;;;;5.53;4.57;;;;;;;;;;5070588;28;20429;-87
2023/06/01 10:03:41;;;;;;;5.28;4.57;;;;;;;;;;5060961;28;20389;-87
2023/06/01 10:06:08;;;;;;;5.35;4.85;;;;;;;;;;5039791;28;20384;-88
2023/06/01 10:08:34;;;;;;;4.93;4.43;;;;;;;;;;5060218;28;20518;-87
2023/06/01 10:11:00;;;;;;;6.10;5.03;;;;;;;;;;5066777;28;20414;-89
2023/06/01 10:13:26;;;;;;;6.78;5.10;;;;;;;;;;5068078;28;20902;-88
2023/06/01 10:15:55;;;;;;;6.50;4.90;;;;;;;;;;5070747;28;20523;-88
2023/06/01 10:18:21;;;;;;;5.28;4.88;;;;;;;;;;5061655;28;20408;-87
2023/06/01 10:20:47;;;;;;;5.72;5.13;;;;;;;;;;5070796;28;20459;-88
2023/06/01 10:23:13;;;;;;;5.30;4.80;;;;;;;;;;5048731;28;20385;-87
2023/06/01 10:25:45;;;;;;;5.75;5.18;;;;;;;;;;5070497;28;20844;-86
2023/06/01 10:28:12;;;;;;;5.50;5.00;;;;;;;;;;5074107;28;20394;-87
2023/06/01 10:30:38;;;;;;;5.50;4.82;;;;;;;;;;5073927;28;20428;-87
2023/06/01 10:33:04;;;;;;;7.00;5.30;;;;;;;;;;5074187;28;20384;-88
2023/06/01 10:35:33;;;;;;;5.10;4.60;;;;;;;;;;5066644;28;20840;-85
2023/06/01 10:38:14;;;;;;;5.00;4.60;;;;;;;;;;5063247;28;20849;-86
2023/06/01 10:40:40;;;;;;;5.82;4.63;;;;;;;;;;5073847;28;20760;-86
2023/06/01 10:43:08;;;;;;;6.57;4.50;;;;;;;;;;5070133;28;20387;-86
2023/06/01 10:45:40;;;;;;;5.25;4.75;;;;;;;;;;5073530;28;20429;-85
2023/06/01 10:48:10;;;;;;;6.90;5.00;;;;;;;;;;5070948;28;20473;-86
2023/06/01 10:50:37;;;;;;;6.93;4.53;;;;;;;;;;5054183;28;20399;-86
2023/06/01 10:53:21;;;;;;;6.23;4.83;;;;;;;;;;5073551;28;20402;-85
2023/06/01 10:55:47;;;;;;;5.60;4.80;;;;;;;;;;5073705;28;20375;-86
2023/06/01 10:58:21;;;;;;;5.25;4.38;;;;;;;;;;5073639;28;20379;-87
2023/06/01 11:00:48;;;;;;;4.72;4.32;;;;;;;;;;5073486;28;20899;-86
2023/06/01 11:03:14;;;;;;;5.65;4.70;;;;;;;;;;5073695;28;20412;-86
2023/06/01 11:05:51;;;;;;;5.25;4.45;;;;;;;;;;5073524;28;20480;-87
2023/06/01 11:08:20;;;;;;;5.28;4.60;;;;;;;;;;5064206;28;20470;-86
2023/06/01 11:10:58;;;;;;;5.82;4.45;;;;;;;;;;5073368;28;20411;-86
2023/06/01 11:13:31;;;;;;;5.10;4.57;;;;;;;;;;5072829;28;20380;-86
2023/06/01 11:16:10;;;;;;;5.32;4.68;;;;;;;;;;5072977;28;20463;-87
2023/06/01 11:18:58;;;;;;;6.68;4.45;;;;;;;;;;5079348;28;20411;-86
2023/06/01 11:21:36;;;;;;;5.20;4.30;;;;;;;;;;5073141;28;20376;-86
2023/06/01 11:24:06;;;;;;;5.15;4.40;;;;;;;;;;5073270;28;20412;-87
2023/06/01 11:26:36;;;;;;;5.07;4.50;;;;;;;;;;5056721;28;20388;-88
2023/06/01 11:29:11;;;;;;;6.15;4.82;;;;;;;;;;5062060;28;20415;-87
2023/06/01 11:31:41;;;;;;;6.05;4.72;;;;;;;;;;5051351;28;20383;-87
2023/06/01 11:34:08;;;;;;;5.63;4.40;;;;;;;;;;5073096;28;20713;-87
2023/06/01 11:36:37;;;;;;;5.63;4.20;;;;;;;;;;5063177;28;20448;-85
2023/06/01 11:39:07;;;;;;;6.18;4.32;;;;;;;;;;5056758;28;20443;-86
2023/06/01 11:41:33;;;;;;;8.05;4.40;;;;;;;;;;5067199;28;20382;-86
2023/06/01 11:43:59;;;;;;;5.53;4.30;;;;;;;;;;5058923;28;20384;-86
2023/06/01 11:46:26;;;;;;;4.80;4.30;;;;;;;;;;5065556;28;20855;-86
2023/06/01 11:49:09;;;;;;;5.13;4.57;;;;;;;;;;5058408;28;20869;-86
2023/06/01 11:51:39;;;;;;;4.90;4.13;;;;;;;;;;5041395;28;20385;-87
2023/06/01 11:54:05;;;;;;;5.45;4.30;;;;;;;;;;5058898;28;20483;-87
2023/06/01 11:56:32;;;;;;;4.97;3.90;;;;;;;;;;5057279;28;20476;-87
2023/06/01 11:59:02;;;;;;;5.32;3.95;;;;;;;;;;5058490;28;20409;-87
2023/06/01 12:01:28;;;;;;;4.18;3.78;;;;;;;;;;5071790;28;20403;-87
2023/06/01 12:03:59;;;;;;;4.63;4.13;;;;;;;;;;5069989;28;20681;-87
2023/06/01 12:06:26;;;;;;;4.38;4.00;;;;;;;;;;5061954;28;20383;-86
2023/06/01 12:08:54;;;;;;;4.33;3.97;;;;;;;;;;5071581;28;20429;-84
2023/06/01 12:11:22;;;;;;;4.60;4.20;;;;;;;;;;5057022;28;20500;-87
2023/06/01 12:13:48;;;;;;;4.72;4.30;;;;;;;;;;5064958;28;20380;-86
2023/06/01 12:16:16;;;;;;;4.20;3.80;;;;;;;;;;5071594;28;20455;-85
2023/06/01 12:18:42;;;;;;;7.90;4.28;;;;;;;;;;5056655;28;20855;-86
2023/06/01 12:21:12;;;;;;;4.95;4.28;;;;;;;;;;5071921;28;20411;-85
2023/06/01 12:23:38;;;;;;;7.00;4.20;;;;;;;;;;5072047;28;20398;-85
2023/06/01 12:26:07;;;;;;;5.82;4.28;;;;;;;;;;5072001;28;20940;-85
2023/06/01 12:28:50;;;;;;;4.38;3.97;;;;;;;;;;5054958;28;20728;-85
2023/06/01 12:31:17;;;;;;;5.10;3.88;;;;;;;;;;5065678;28;20410;-85
2023/06/01 12:33:45;;;;;;;5.07;4.05;;;;;;;;;;5060666;28;20380;-86
2023/06/01 12:36:12;;;;;;;4.35;4.00;;;;;;;;;;5054681;28;20771;-84
2023/06/01 12:38:50;;;;;;;5.25;4.30;;;;;;;;;;5065397;28;20441;-85
2023/06/01 12:41:17;;;;;;;4.60;3.93;;;;;;;;;;5066458;28;20376;-84
2023/06/01 12:43:46;;;;;;;4.80;3.83;;;;;;;;;;5069579;28;20383;-84
2023/06/01 12:46:19;;;;;;;4.55;3.95;;;;;;;;;;5069941;28;20433;-85
2023/06/01 12:48:46;;;;;;;5.03;3.97;;;;;;;;;;5070936;28;20415;-84
2023/06/01 12:51:12;;;;;;;4.40;3.97;;;;;;;;;;5071424;28;20745;-84
2023/06/01 12:53:39;;;;;;;5.88;4.13;;;;;;;;;;5070132;28;20879;-84
2023/06/01 12:56:06;;;;;;;5.50;3.97;;;;;;;;;;5064966;28;20384;-85
2023/06/01 12:58:32;;;;;;;5.07;4.30;;;;;;;;;;5071257;28;20899;-84
2023/06/01 13:00:58;;;;;;;4.13;3.72;;;;;;;;;;5071282;28;20387;-85
2023/06/01 13:03:24;;;;;;;4.50;4.10;;;;;;;;;;5071496;28;20823;-86
2023/06/01 13:05:51;;;;;;;5.03;3.80;;;;;;;;;;5071198;28;20414;-85
2023/06/01 13:08:17;;;;;;;4.40;4.00;;;;;;;;;;5071442;28;20437;-86
2023/06/01 13:10:43;;;;;;;5.22;4.00;;;;;;;;;;5070596;28;20490;-85
2023/06/01 13:13:10;;;;;;;4.32;4.03;;;;;;;;;;5071286;28;20380;-85
2023/06/01 13:15:39;;;;;;;4.60;4.20;;;;;;;;;;5053100;28;20467;-85
2023/06/01 13:18:05;;;;;;;4.33;3.93;;;;;;;;;;5068523;28;20881;-84
2023/06/01 13:20:31;;;;;;;4.57;4.17;;;;;;;;;;5070714;28;20392;-86
2023/06/01 13:22:57;;;;;;;4.55;3.75;;;;;;;;;;5056724;28;20448;-85
2023/06/01 13:25:24;;;;;;;3.70;3.40;;;;;;;;;;5071168;28;20392;-86
2023/06/01 13:27:50;;;;;;;4.00;3.40;;;;;;;;;;5071143;28;20388;-86
2023/06/01 13:30:17;;;;;;;4.05;3.65;;;;;;;;;;5055757;28;20395;-85
2023/06/01 13:32:43;;;;;;;3.80;3.50;;;;;;;;;;5071076;28;20740;-86
2023/06/01 13:35:11;;;;;;;4.28;3.67;;;;;;;;;;5070904;28;20376;-85
2023/06/01 13:37:37;;;;;;;4.80;3.60;;;;;;;;;;5069130;28;20458;-86
2023/06/01 13:40:04;;;;;;;5.50;3.67;;;;;;;;;;5057249;28;20415;-86
2023/06/01 13:42:30;;;;;;;3.63;3.35;;;;;;;;;;5071077;28;20623;-86
2023/06/01 13:44:57;;;;;;;4.20;3.42;;;;;;;;;;5065518;28;20480;-86
2023/06/01 13:47:23;;;;;;;4.10;3.37;;;;;;;;;;5060216;28;20376;-87
2023/06/01 13:49:49;;;;;;;4.50;3.43;;;;;;;;;;5070817;28;20876;-86
2023/06/01 13:52:15;;;;;;;3.70;3.40;;;;;;;;;;5070566;28;20379;-86
2023/06/01 13:54:41;;;;;;;3.90;3.50;;;;;;;;;;5071030;28;20390;-87
2023/06/01 13:57:07;;;;;;;3.50;3.20;;;;;;;;;;5055437;28;20742;-88
2023/06/01 13:59:35;;;;;;;4.53;3.30;;;;;;;;;;5070695;28;20453;-87
2023/06/01 14:02:01;;;;;;;3.60;3.03;;;;;;;;;;5047954;28;20750;-87
2023/06/01 14:04:27;;;;;;;3.47;3.10;;;;;;;;;;5068857;28;20389;-87
2023/06/01 14:06:55;;;;;;;5.07;3.35;;;;;;;;;;5061387;28;20381;-86
2023/06/01 14:09:21;;;;;;;3.97;3.30;;;;;;;;;;5072406;28;20395;-86
2023/06/01 14:11:47;;;;;;;4.53;3.53;;;;;;;;;;5074570;28;20379;-87
2023/06/01 14:14:13;;;;;;;3.73;3.20;;;;;;;;;;5074081;28;20376;-87
2023/06/01 14:16:39;;;;;;;4.73;3.63;;;;;;;;;;5074533;28;20410;-87
2023/06/01 14:19:06;;;;;;;3.60;3.30;;;;;;;;;;5074218;28;20403;-88
2023/06/01 14:21:34;;;;;;;5.15;3.45;;;;;;;;;;5074511;28;20403;-86
2023/06/01 14:24:00;;;;;;;4.55;3.40;;;;;;;;;;5074473;28;20434;-87
2023/06/01 14:26:27;;;;;;;3.00;2.70;;;;;;;;;;5065668;28;20463;-87
2023/06/01 14:28:54;;;;;;;4.15;3.10;;;;;;;;;;5074302;28;20383;-87
2023/06/01 14:31:20;;;;;;;3.78;3.13;;;;;;;;;;5064335;28;20384;-87
2023/06/01 14:33:47;;;;;;;3.30;3.00;;;;;;;;;;5074252;28;20383;-86
2023/06/01 14:36:13;;;;;;;4.63;3.10;;;;;;;;;;5059327;28;20388;-87
2023/06/01 14:38:39;;;;;;;3.88;3.30;;;;;;;;;;5074057;28;20745;-87
2023/06/01 14:41:05;;;;;;;4.68;3.20;;;;;;;;;;5074169;28;20378;-87
2023/06/01 14:43:31;;;;;;;3.67;3.38;;;;;;;;;;5073908;28;20880;-87
2023/06/01 14:45:57;;;;;;;3.67;3.13;;;;;;;;;;5061657;28;20388;-87